createdAt,value
2022-09-30T00:01:34.229Z,20.05
2022-09-30T00:04:02.138Z,20.50
2022-09-30T00:06:31.399Z,17.42
2022-09-30T00:08:58.406Z,18.73
2022-09-30T00:11:31.341Z,18.63
2022-09-30T00:13:58.549Z,17.55
2022-09-30T00:16:27.369Z,18.80
2022-09-30T00:18:58.758Z,20.33
2022-09-30T00:21:25.625Z,23.92
2022-09-30T00:23:52.467Z,16.83
2022-09-30T00:26:20.977Z,19.95
2022-09-30T00:28:52.363Z,19.48
2022-09-30T00:31:20.403Z,17.67
2022-09-30T00:34:10.498Z,17.50
2022-09-30T00:36:41.460Z,17.00
2022-09-30T00:39:10.801Z,20.60
2022-09-30T00:41:37.876Z,20.52
2022-09-30T00:44:43.316Z,20.25
2022-09-30T00:47:31.013Z,21.10
2022-09-30T00:50:17.210Z,21.85
2022-09-30T00:52:48.952Z,23.88
2022-09-30T00:55:49.594Z,22.63
2022-09-30T00:58:23.949Z,24.38
2022-09-30T01:00:52.183Z,20.95
2022-09-30T01:03:20.700Z,21.42
2022-09-30T01:05:47.455Z,20.67
2022-09-30T01:08:14.231Z,17.48
2022-09-30T01:10:41.094Z,17.17
2022-09-30T01:13:08.050Z,17.85
2022-09-30T01:16:24.300Z,19.08
2022-09-30T01:19:05.845Z,19.98
2022-09-30T01:22:10.911Z,22.25
2022-09-30T01:24:47.579Z,27.48
2022-09-30T01:27:30.470Z,22.55
2022-09-30T01:30:07.110Z,20.70
2022-09-30T01:32:52.214Z,21.25
2022-09-30T01:35:29.109Z,20.60
2022-09-30T01:38:09.420Z,21.35
2022-09-30T01:41:00.920Z,21.50
2022-09-30T01:43:39.031Z,17.40
2022-09-30T01:46:20.971Z,19.35
2022-09-30T01:49:25.783Z,20.20
2022-09-30T01:51:55.545Z,17.60
2022-09-30T01:54:39.395Z,22.00
2022-09-30T01:57:22.502Z,19.48
2022-09-30T01:59:57.940Z,19.42
2022-09-30T02:02:28.448Z,18.52
2022-09-30T02:05:01.280Z,29.35
2022-09-30T02:07:36.441Z,36.25
2022-09-30T02:10:27.522Z,33.92
2022-09-30T02:13:03.541Z,33.50
2022-09-30T02:15:40.385Z,25.17
2022-09-30T02:18:39.343Z,22.50
2022-09-30T02:21:09.309Z,20.08
2022-09-30T02:23:41.059Z,22.02
2022-09-30T02:26:15.465Z,30.42
2022-09-30T02:28:46.560Z,23.58
2022-09-30T02:31:16.255Z,21.25
2022-09-30T02:33:58.355Z,21.88
2022-09-30T02:36:43.826Z,22.65
2022-09-30T02:39:31.318Z,28.98
2022-09-30T02:42:06.870Z,24.70
2022-09-30T02:44:33.745Z,24.75
2022-09-30T02:47:13.102Z,21.02
2022-09-30T02:49:45.846Z,19.77
2022-09-30T02:52:12.980Z,20.80
2022-09-30T02:54:52.161Z,23.05
2022-09-30T02:58:00.100Z,19.55
2022-09-30T03:00:27.367Z,24.00
2022-09-30T03:02:59.578Z,22.00
2022-09-30T03:05:28.052Z,17.70
2022-09-30T03:07:55.650Z,20.52
2022-09-30T03:10:22.612Z,18.77
2022-09-30T03:13:07.793Z,19.33
2022-09-30T03:16:14.408Z,16.13
2022-09-30T03:18:50.216Z,17.63
2022-09-30T03:21:22.946Z,13.00
2022-09-30T03:24:11.412Z,16.48
2022-09-30T03:27:08.474Z,16.25
2022-09-30T03:29:53.903Z,12.43
2022-09-30T03:33:00.827Z,11.85
2022-09-30T03:35:39.479Z,13.27
2022-09-30T03:38:13.028Z,8.63
2022-09-30T03:40:53.938Z,9.82
2022-09-30T03:43:27.466Z,8.63
2022-09-30T03:46:06.101Z,14.25
2022-09-30T03:48:35.777Z,9.32
2022-09-30T03:51:03.641Z,9.05
2022-09-30T03:53:30.491Z,6.28
2022-09-30T03:55:57.195Z,8.55
2022-09-30T03:58:23.938Z,5.15
2022-09-30T04:00:53.276Z,9.15
2022-09-30T04:03:22.201Z,8.77
2022-09-30T04:05:49.402Z,8.02
2022-09-30T04:08:16.822Z,7.38
2022-09-30T04:10:44.375Z,7.05
2022-09-30T04:13:11.992Z,6.55
2022-09-30T04:15:39.213Z,7.55
2022-09-30T04:18:06.398Z,10.25
2022-09-30T04:20:33.216Z,8.32
2022-09-30T04:23:01.208Z,11.98
2022-09-30T04:25:29.058Z,11.52
2022-09-30T04:27:56.824Z,5.45
2022-09-30T04:30:26.324Z,8.00
2022-09-30T04:32:54.868Z,5.20
2022-09-30T04:35:21.630Z,6.55
2022-09-30T04:37:48.471Z,7.40
2022-09-30T04:40:16.829Z,9.63
2022-09-30T04:42:44.134Z,7.60
2022-09-30T04:45:14.468Z,8.15
2022-09-30T04:47:45.486Z,14.10
2022-09-30T04:50:13.713Z,16.85
2022-09-30T04:52:43.994Z,14.32
2022-09-30T04:55:11.846Z,12.30
2022-09-30T04:57:38.605Z,10.23
2022-09-30T05:00:09.228Z,12.90
2022-09-30T05:02:36.271Z,11.32
2022-09-30T05:05:04.356Z,7.88
2022-09-30T05:07:32.331Z,7.72
2022-09-30T05:09:59.538Z,7.57
2022-09-30T05:12:26.530Z,3.83
2022-09-30T05:14:53.381Z,6.15
2022-09-30T05:17:20.155Z,5.40
2022-09-30T05:19:46.816Z,4.13
2022-09-30T05:22:19.255Z,5.18
2022-09-30T05:24:45.997Z,4.05
2022-09-30T05:27:12.705Z,2.92
2022-09-30T05:29:39.965Z,6.25
2022-09-30T05:32:07.979Z,4.75
2022-09-30T05:34:35.233Z,3.70
2022-09-30T05:37:02.022Z,5.22
2022-09-30T05:39:29.443Z,3.65
2022-09-30T05:41:59.567Z,3.85
2022-09-30T05:44:26.547Z,3.15
2022-09-30T05:46:53.577Z,6.50
2022-09-30T05:49:20.382Z,6.57
2022-09-30T05:51:48.192Z,3.15
2022-09-30T05:54:15.085Z,3.60
2022-09-30T05:56:41.931Z,2.55
2022-09-30T05:59:08.891Z,3.72
2022-09-30T06:01:36.491Z,3.35
2022-09-30T06:04:03.494Z,4.03
2022-09-30T06:06:30.494Z,3.40
2022-09-30T06:08:57.392Z,2.65
2022-09-30T06:11:25.235Z,2.83
2022-09-30T06:13:52.581Z,2.33
2022-09-30T06:16:20.402Z,2.60
2022-09-30T06:18:47.387Z,5.20
2022-09-30T06:21:15.947Z,2.95
2022-09-30T06:23:43.310Z,4.43
2022-09-30T06:26:12.080Z,2.28
2022-09-30T06:28:39.496Z,4.55
2022-09-30T06:31:07.201Z,2.38
2022-09-30T06:33:34.741Z,3.45
2022-09-30T06:36:04.989Z,4.05
2022-09-30T06:38:33.126Z,2.33
2022-09-30T06:41:03.325Z,4.72
2022-09-30T06:43:37.562Z,3.83
2022-09-30T06:46:20.366Z,2.67
2022-09-30T06:49:05.041Z,3.88
2022-09-30T06:51:41.273Z,2.85
2022-09-30T06:54:09.350Z,5.82
2022-09-30T06:56:37.280Z,2.80
2022-09-30T06:59:04.734Z,3.83
2022-09-30T07:01:31.489Z,3.20
2022-09-30T07:03:58.459Z,1.80
2022-09-30T07:06:29.373Z,2.63
2022-09-30T07:08:57.028Z,3.05
2022-09-30T07:11:24.993Z,3.38
2022-09-30T07:13:51.925Z,4.18
2022-09-30T07:16:21.546Z,2.15
2022-09-30T07:18:48.552Z,2.55
2022-09-30T07:21:16.507Z,2.47
2022-09-30T07:23:48.350Z,3.45
2022-09-30T07:26:17.509Z,3.53
2022-09-30T07:28:45.431Z,2.60
2022-09-30T07:31:33.696Z,2.70
2022-09-30T07:34:02.784Z,2.63
2022-09-30T07:36:34.045Z,2.05
2022-09-30T07:41:36.188Z,2.30
2022-09-30T07:44:04.238Z,3.45
2022-09-30T07:46:33.030Z,2.63
2022-09-30T07:49:02.391Z,1.92
2022-09-30T07:51:38.147Z,3.55
2022-09-30T07:54:08.262Z,2.63
2022-09-30T07:57:05.174Z,2.58
2022-09-30T07:59:27.471Z,4.03
2022-09-30T08:01:55.065Z,3.47
2022-09-30T08:04:23.428Z,3.33
2022-09-30T08:06:54.337Z,2.85
2022-09-30T08:09:24.141Z,1.38
2022-09-30T08:11:51.243Z,2.05
2022-09-30T08:14:28.896Z,1.90
2022-09-30T08:16:58.757Z,2.13
2022-09-30T08:19:27.711Z,1.67
2022-09-30T08:21:55.465Z,3.25
2022-09-30T08:24:23.867Z,2.83
2022-09-30T08:26:51.262Z,4.57
2022-09-30T09:35:16.568Z,2.65
2022-09-30T09:38:34.335Z,1.83
2022-09-30T09:41:22.057Z,1.50
2022-09-30T09:44:10.089Z,2.20
2022-09-30T09:46:43.217Z,3.28
2022-09-30T09:49:24.256Z,2.15
2022-09-30T09:51:59.983Z,1.70
2022-09-30T09:54:31.361Z,2.40
2022-09-30T09:59:54.566Z,1.88
2022-09-30T10:02:29.798Z,3.30
2022-09-30T10:05:04.175Z,3.00
2022-09-30T10:07:33.580Z,3.42
2022-09-30T10:10:23.330Z,2.58
2022-09-30T10:12:50.723Z,4.82
2022-09-30T10:15:26.508Z,3.92
2022-09-30T10:17:58.710Z,1.88
2022-09-30T10:20:34.222Z,2.15
2022-09-30T10:23:18.150Z,3.53
2022-09-30T10:26:06.040Z,2.08
2022-09-30T10:28:45.972Z,1.55
2022-09-30T10:31:20.668Z,4.28
2022-09-30T10:33:51.663Z,2.28
2022-09-30T10:36:23.526Z,2.13
2022-09-30T10:39:29.153Z,2.13
2022-09-30T10:42:17.027Z,2.03
2022-09-30T10:44:47.777Z,3.05
2022-09-30T10:47:20.766Z,3.45
2022-09-30T10:49:57.006Z,3.65
2022-09-30T10:52:34.923Z,1.98
2022-09-30T10:55:25.481Z,2.67
2022-09-30T10:57:54.362Z,2.05
2022-09-30T11:00:26.080Z,2.03
2022-09-30T11:03:00.505Z,2.95
2022-09-30T11:05:49.405Z,4.00
2022-09-30T11:08:29.726Z,2.55
2022-09-30T11:11:11.556Z,2.22
2022-09-30T11:14:13.767Z,1.50
2022-09-30T11:16:56.807Z,4.57
2022-09-30T11:19:49.410Z,2.30
2022-09-30T11:22:36.612Z,2.35
2022-09-30T11:25:08.748Z,1.73
2022-09-30T11:28:01.021Z,1.98
2022-09-30T11:30:37.003Z,2.78
2022-09-30T11:33:17.653Z,2.22
2022-09-30T11:35:53.509Z,2.15
2022-09-30T11:38:35.433Z,2.63
2022-09-30T11:41:11.498Z,2.38
2022-09-30T11:43:57.231Z,2.40
2022-09-30T11:46:36.219Z,2.20
2022-09-30T11:49:38.478Z,5.68
2022-09-30T11:52:39.165Z,2.38
2022-09-30T11:55:31.292Z,1.97
2022-09-30T11:58:22.290Z,3.88
2022-09-30T12:01:00.621Z,1.67
2022-09-30T12:03:36.388Z,1.58
2022-09-30T12:06:27.088Z,2.50
2022-09-30T12:09:01.613Z,1.88
2022-09-30T12:11:43.164Z,2.25
2022-09-30T12:14:24.819Z,1.90
2022-09-30T12:16:51.957Z,1.63
2022-09-30T12:19:29.004Z,2.40
2022-09-30T12:22:03.379Z,2.58
2022-09-30T12:24:38.802Z,1.80
2022-09-30T12:27:16.795Z,2.55
2022-09-30T12:30:13.354Z,3.45
2022-09-30T12:32:55.765Z,1.60
2022-09-30T12:35:46.718Z,2.20
2022-09-30T12:38:26.124Z,2.17
2022-09-30T12:41:12.107Z,1.70
2022-09-30T12:43:51.429Z,1.52
2022-09-30T12:46:37.141Z,1.60
2022-09-30T12:49:09.896Z,2.30
2022-09-30T12:51:43.155Z,2.20
2022-09-30T12:54:19.176Z,1.60
2022-09-30T12:56:53.803Z,1.40
2022-09-30T12:59:27.393Z,5.75
2022-09-30T13:01:55.767Z,1.92
2022-09-30T13:04:35.339Z,2.65
2022-09-30T13:07:02.261Z,2.00
2022-09-30T13:09:37.086Z,1.45
2022-09-30T13:12:04.806Z,1.58
2022-09-30T13:14:44.592Z,2.88
2022-09-30T13:17:11.732Z,2.28
2022-09-30T13:19:46.777Z,2.28
2022-09-30T13:22:39.881Z,1.67
2022-09-30T13:25:15.887Z,1.73
2022-09-30T13:27:42.624Z,1.45
2022-09-30T13:30:15.895Z,2.42
2022-09-30T13:33:07.004Z,1.73
2022-09-30T13:35:51.635Z,1.00
2022-09-30T13:38:21.964Z,1.08
2022-09-30T13:41:05.744Z,1.33
2022-09-30T13:44:12.735Z,2.72
2022-09-30T13:46:49.296Z,1.75
2022-09-30T13:49:29.846Z,1.88
2022-09-30T13:51:56.733Z,3.40
2022-09-30T13:54:36.619Z,2.90
2022-09-30T13:57:06.591Z,1.40
2022-09-30T13:59:57.335Z,2.20
2022-09-30T14:02:40.421Z,1.00
2022-09-30T14:05:22.834Z,2.70
2022-09-30T14:08:14.750Z,1.83
2022-09-30T14:11:12.020Z,1.20
2022-09-30T14:14:06.348Z,2.05
2022-09-30T14:16:38.694Z,2.83
2022-09-30T14:19:28.385Z,2.75
2022-09-30T14:21:58.584Z,3.97
2022-09-30T14:24:35.098Z,2.95
2022-09-30T14:27:32.235Z,3.63
2022-09-30T14:30:19.572Z,1.80
2022-09-30T14:32:55.739Z,2.10
2022-09-30T14:35:22.434Z,4.35
2022-09-30T14:37:53.842Z,1.30
2022-09-30T14:42:52.079Z,3.22
2022-09-30T14:45:27.928Z,3.38
2022-09-30T14:47:59.498Z,3.13
2022-09-30T14:50:37.827Z,2.10
2022-09-30T14:53:04.699Z,1.58
2022-09-30T14:55:33.579Z,2.15
2022-09-30T14:58:24.739Z,2.20
2022-09-30T15:01:17.783Z,5.88
2022-09-30T15:03:53.582Z,4.68
2022-09-30T15:06:30.927Z,5.65
2022-09-30T15:09:08.515Z,8.05
2022-09-30T15:11:39.544Z,3.92
2022-09-30T15:16:35.878Z,7.13
2022-09-30T15:19:02.985Z,8.73
2022-09-30T15:21:32.123Z,8.57
2022-09-30T15:24:00.821Z,40.10
2022-09-30T15:26:27.968Z,12.02
2022-09-30T15:28:55.054Z,12.02
2022-09-30T15:31:28.750Z,8.23
2022-09-30T15:34:19.196Z,10.57
2022-09-30T15:36:56.714Z,5.22
2022-09-30T15:39:47.576Z,51.10
2022-09-30T15:42:23.019Z,76.65
2022-09-30T15:44:49.784Z,55.88
2022-09-30T15:47:16.613Z,38.78
2022-09-30T15:49:49.974Z,23.02
2022-09-30T15:52:28.440Z,7.78
2022-09-30T15:54:56.476Z,10.23
2022-09-30T15:57:48.329Z,8.35
2022-09-30T16:00:36.305Z,6.22
2022-09-30T16:03:27.304Z,9.90
2022-09-30T16:06:06.010Z,9.07
2022-09-30T16:08:41.736Z,16.75
2022-09-30T16:11:09.057Z,13.25
2022-09-30T16:13:41.995Z,16.70
2022-09-30T16:16:21.864Z,15.13
2022-09-30T16:18:51.579Z,19.35
2022-09-30T16:21:45.408Z,22.33
2022-09-30T16:24:35.889Z,19.17
2022-09-30T16:27:21.690Z,18.38
2022-09-30T16:29:48.426Z,18.77
2022-09-30T16:32:15.196Z,17.98
2022-09-30T16:34:42.270Z,18.13
2022-09-30T16:37:14.149Z,22.13
2022-09-30T16:39:41.330Z,18.23
2022-09-30T16:42:13.707Z,18.55
2022-09-30T16:44:44.574Z,19.27
2022-09-30T16:47:16.324Z,22.10
2022-09-30T16:49:45.236Z,18.05
2022-09-30T16:52:13.405Z,23.52
2022-09-30T16:54:41.459Z,25.80
2022-09-30T16:57:08.564Z,24.65
2022-09-30T16:59:35.273Z,24.08
2022-09-30T17:02:02.241Z,19.58
2022-09-30T17:04:29.345Z,20.60
2022-09-30T17:06:59.117Z,83.40
2022-09-30T17:09:25.895Z,69.47
2022-09-30T17:11:53.425Z,40.42
2022-09-30T17:14:20.442Z,41.95
2022-09-30T17:16:47.326Z,42.67
2022-09-30T17:19:14.352Z,36.10
2022-09-30T17:21:41.136Z,29.73
2022-09-30T17:24:08.121Z,29.00
2022-09-30T17:26:35.158Z,42.65
2022-09-30T17:29:21.232Z,52.47
2022-09-30T17:31:51.126Z,60.83
2022-09-30T17:34:18.197Z,74.25
2022-09-30T17:36:44.878Z,63.60
2022-09-30T17:39:11.665Z,70.13
2022-09-30T17:41:56.891Z,71.75
2022-09-30T17:44:24.971Z,62.05
2022-09-30T17:47:00.547Z,69.18
2022-09-30T17:49:34.978Z,64.40
2022-09-30T17:52:02.273Z,61.38
2022-09-30T17:54:29.809Z,59.95
2022-09-30T17:57:00.098Z,59.60
2022-09-30T17:59:28.838Z,59.60
2022-09-30T18:01:58.599Z,54.20
2022-09-30T18:04:27.028Z,42.30
2022-09-30T18:06:54.621Z,41.28
2022-09-30T18:09:22.663Z,37.38
2022-09-30T18:11:49.933Z,37.13
2022-09-30T18:14:16.641Z,36.50
2022-09-30T18:16:44.030Z,40.65
2022-09-30T18:19:11.192Z,34.80
2022-09-30T18:21:38.669Z,46.42
2022-09-30T18:24:06.675Z,40.00
2022-09-30T18:26:36.029Z,37.80
2022-09-30T18:29:04.305Z,27.38
2022-09-30T18:31:38.889Z,18.05
2022-09-30T18:34:08.188Z,14.43
2022-09-30T18:36:36.536Z,15.95
2022-09-30T18:39:03.701Z,14.38
2022-09-30T18:41:34.537Z,16.23
2022-09-30T18:44:03.649Z,16.75
2022-09-30T18:46:32.203Z,20.00
2022-09-30T18:48:59.513Z,23.70
2022-09-30T18:51:28.515Z,18.85
2022-09-30T18:53:57.986Z,16.42
2022-09-30T18:56:32.319Z,19.90
2022-09-30T18:59:04.696Z,26.05
2022-09-30T19:01:35.191Z,35.65
2022-09-30T19:04:03.338Z,29.10
2022-09-30T19:06:30.098Z,28.40
2022-09-30T19:08:57.401Z,34.60
2022-09-30T19:11:25.713Z,33.17
2022-09-30T19:13:53.064Z,24.17
2022-09-30T19:16:20.222Z,22.02
2022-09-30T19:18:47.464Z,18.20
2022-09-30T19:21:17.689Z,17.90
2022-09-30T19:23:44.532Z,17.98
2022-09-30T19:26:15.867Z,19.27
2022-09-30T19:28:43.354Z,24.20
2022-09-30T19:31:17.219Z,22.23
2022-09-30T19:33:56.141Z,19.17
2022-09-30T19:36:24.987Z,19.67
2022-09-30T19:38:58.893Z,24.25
2022-09-30T19:41:32.856Z,17.05
2022-09-30T19:44:02.862Z,17.42
2022-09-30T19:46:30.305Z,17.98
2022-09-30T19:48:57.504Z,22.58
2022-09-30T19:51:24.485Z,19.13
2022-09-30T19:54:02.482Z,19.98
2022-09-30T19:56:34.925Z,19.50
2022-09-30T19:59:02.076Z,21.98
2022-09-30T20:01:30.971Z,21.75
2022-09-30T20:04:00.448Z,20.55
2022-09-30T20:06:28.243Z,17.42
2022-09-30T20:09:00.358Z,11.50
2022-09-30T20:11:30.806Z,13.25
2022-09-30T20:14:17.012Z,21.15
2022-09-30T20:16:45.281Z,16.17
2022-09-30T20:19:12.192Z,12.70
2022-09-30T20:21:41.857Z,15.88
2022-09-30T20:24:11.161Z,10.77
2022-09-30T20:26:41.412Z,11.57
2022-09-30T20:29:09.029Z,12.05
2022-09-30T20:31:37.378Z,17.67
2022-09-30T20:34:04.818Z,30.00
2022-09-30T20:36:32.199Z,26.88
2022-09-30T20:39:03.206Z,17.38
2022-09-30T20:41:35.894Z,14.50
2022-09-30T20:44:14.912Z,17.75
2022-09-30T20:46:41.962Z,22.30
2022-09-30T20:49:09.538Z,11.35
2022-09-30T20:51:36.439Z,27.00
2022-09-30T20:54:03.332Z,15.05
2022-09-30T20:56:49.690Z,21.55
2022-09-30T20:59:17.758Z,12.85
2022-09-30T21:01:44.739Z,13.13
2022-09-30T21:04:11.768Z,13.45
2022-09-30T21:06:38.552Z,16.83
2022-09-30T21:09:05.642Z,14.02
2022-09-30T21:11:33.409Z,18.52
2022-09-30T21:14:00.847Z,22.13
2022-09-30T21:16:27.830Z,14.38
2022-09-30T21:18:55.430Z,13.25
2022-09-30T21:21:23.140Z,10.60
2022-09-30T21:23:55.556Z,13.02
2022-09-30T21:26:22.397Z,14.88
2022-09-30T21:28:50.868Z,16.15
2022-09-30T21:31:21.391Z,11.70
2022-09-30T21:33:56.742Z,14.25
2022-09-30T21:36:24.694Z,9.80
2022-09-30T21:38:52.477Z,11.85
2022-09-30T21:41:20.013Z,9.00
2022-09-30T21:43:47.299Z,9.27
2022-09-30T21:46:15.900Z,10.88
2022-09-30T21:48:43.418Z,10.57
2022-09-30T21:51:10.418Z,10.45
2022-09-30T21:53:39.057Z,9.38
2022-09-30T21:56:07.593Z,10.77
2022-09-30T21:58:34.420Z,9.10
2022-09-30T22:01:04.223Z,9.85
2022-09-30T22:03:38.722Z,10.70
2022-09-30T22:06:10.915Z,10.07
2022-09-30T22:08:40.825Z,12.15
2022-09-30T22:11:16.168Z,10.30
2022-09-30T22:13:46.643Z,11.13
2022-09-30T22:16:15.485Z,10.25
2022-09-30T22:18:43.186Z,8.55
2022-09-30T22:21:12.504Z,10.65
2022-09-30T22:23:39.806Z,10.20
2022-09-30T22:26:18.805Z,9.30
2022-09-30T22:28:47.188Z,8.75
2022-09-30T22:31:20.583Z,10.57
2022-09-30T22:34:14.965Z,9.05
2022-09-30T22:37:00.921Z,10.43
2022-09-30T22:39:27.785Z,10.18
2022-09-30T22:41:55.786Z,10.05
2022-09-30T22:44:24.866Z,9.25
2022-09-30T22:46:52.983Z,10.55
2022-09-30T22:49:20.106Z,10.82
2022-09-30T22:51:51.137Z,13.30
2022-09-30T22:54:17.973Z,10.38
2022-09-30T22:56:44.796Z,11.68
2022-09-30T22:59:11.511Z,10.65
2022-09-30T23:01:38.312Z,10.05
2022-09-30T23:04:05.566Z,9.25
2022-09-30T23:06:32.296Z,8.90
2022-09-30T23:08:59.096Z,9.77
2022-09-30T23:11:26.282Z,17.10
2022-09-30T23:13:58.827Z,8.38
2022-09-30T23:16:25.951Z,10.00
2022-09-30T23:18:52.885Z,9.65
2022-09-30T23:21:19.688Z,9.73
2022-09-30T23:23:48.668Z,10.80
2022-09-30T23:26:21.442Z,8.02
2022-09-30T23:28:49.096Z,9.70
2022-09-30T23:31:17.820Z,9.05
2022-09-30T23:33:47.295Z,9.38
2022-09-30T23:36:16.179Z,10.00
2022-09-30T23:38:43.009Z,9.07
2022-09-30T23:41:10.120Z,10.35
2022-09-30T23:43:37.433Z,11.90
2022-09-30T23:46:06.497Z,11.25
2022-09-30T23:48:35.076Z,11.95
2022-09-30T23:51:03.223Z,13.75
2022-09-30T23:53:30.637Z,13.45
2022-09-30T23:56:00.698Z,14.20
2022-09-30T23:58:27.705Z,13.10
